Terminal Aerodrome Forecast
Issued by NWS Charleston, WV

Current Version | Previous Version | Text Only | Print | Product List | Glossary Off
Versions: 1 2 3 4 5 6 7 8 9 10 11 12 13 14 15 16 17 18 19 20 21 22 23 24 25 26 27 28

000
FTUS41 KRLX 220500
TAFEKN
TAF
KEKN 220534Z 2206/2306 00000KT 4SM BR SCT001 BKN080
     FM220700 00000KT 1/4SM FG BKN001
      TEMPO 2207/2209 2SM BR SCT001 BKN080
     FM221230 VRB03KT 4SM BR FEW002 SCT045
     FM221300 00000KT P6SM SKC
     FM221500 VRB03KT P6SM SCT040
     FM221800 VRB03KT P6SM VCTS BKN045CB
     FM222300 VRB03KT P6SM SCT050
     FM230500 VRB03KT 4SM BR SCT001=

USA.gov is the U.S. government's official web portal to all federal, state and local government web resources and services.